Time;durP1;ratioP1;P1;durP2;ratioP2;P2;SDS_P1;SDS_P2;PMS_P1;PMS_P2;Temp;Humidity;BMP_temperature;BMP_pressure;BME280_temperature;BME280_humidity;BME280_pressure;Samples;Min_cycle;Max_cycle;Signal;HPM_P1;HPM_P2
2022/01/09 00:01:05;;;;;;;0.43;0.43;;;4.90;99.90;;;4.93;100.00;98417.81;4967371;28;20203;-64
2022/01/09 00:03:32;;;;;;;0.75;0.75;;;4.80;99.90;;;4.94;100.00;98418.63;4968462;28;20228;-63
2022/01/09 00:05:59;;;;;;;0.55;0.55;;;4.80;99.90;;;5.01;100.00;98414.56;4967287;28;20200;-64
2022/01/09 00:08:26;;;;;;;0.32;0.32;;;4.90;99.90;;;5.03;100.00;98423.00;4971255;28;20235;-63
2022/01/09 00:10:53;;;;;;;0.40;0.40;;;4.90;99.90;;;5.02;100.00;98418.81;4970950;28;20709;-64
2022/01/09 00:13:20;;;;;;;0.50;0.50;;;4.90;99.90;;;5.03;100.00;98412.69;4953710;28;20235;-62
2022/01/09 00:15:48;;;;;;;0.40;0.40;;;4.90;99.90;;;5.03;100.00;98412.69;4971319;28;20227;-63
2022/01/09 00:18:15;;;;;;;0.50;0.50;;;4.90;99.90;;;5.04;100.00;98409.16;4970875;28;20204;-63
2022/01/09 00:20:41;;;;;;;0.30;0.30;;;4.90;99.90;;;5.02;100.00;98395.56;4972245;28;20202;-64
2022/01/09 00:23:10;;;;;;;0.77;0.77;;;5.00;99.90;;;5.07;100.00;98398.56;4971422;28;20220;-65
2022/01/09 00:25:37;;;;;;;1.30;0.50;;;5.00;99.90;;;5.11;100.00;98392.19;4952872;28;20303;-64
2022/01/09 00:28:04;;;;;;;0.68;0.68;;;5.00;99.90;;;5.12;100.00;98375.72;4971253;28;20304;-64
2022/01/09 00:30:31;;;;;;;0.40;0.40;;;5.00;99.90;;;5.07;100.00;98383.06;4971933;28;20216;-64
2022/01/09 00:32:58;;;;;;;0.70;0.70;;;5.00;99.90;;;5.10;100.00;98367.28;4975081;28;20352;-65
2022/01/09 00:35:25;;;;;;;0.20;0.20;;;5.00;99.90;;;5.13;100.00;98367.03;4974105;28;20274;-65
2022/01/09 00:37:52;;;;;;;0.30;0.30;;;5.00;99.90;;;5.14;100.00;98360.91;4973030;28;20212;-65
2022/01/09 00:40:19;;;;;;;0.57;0.40;;;5.00;99.90;;;5.19;100.00;98362.16;4910136;28;20578;-63
2022/01/09 00:42:46;;;;;;;0.40;0.40;;;5.10;99.90;;;5.23;100.00;98358.38;4974218;28;20684;-64
2022/01/09 00:45:15;;;;;;;0.30;0.30;;;5.20;99.90;;;5.30;100.00;98354.28;4973821;28;20206;-63
2022/01/09 00:47:43;;;;;;;1.85;0.30;;;5.20;99.90;;;5.34;100.00;98355.69;4958330;28;20199;-64
2022/01/09 00:50:12;;;;;;;0.82;0.40;;;5.20;99.90;;;5.29;100.00;98351.84;4974821;28;20192;-64
2022/01/09 00:52:40;;;;;;;0.30;0.30;;;5.20;99.90;;;5.39;100.00;98342.31;4974469;28;20242;-65
2022/01/09 00:55:08;;;;;;;0.70;0.32;;;5.30;99.90;;;5.48;100.00;98341.53;4955444;28;20204;-64
2022/01/09 00:57:35;;;;;;;0.32;0.32;;;5.30;99.90;;;5.43;100.00;98339.34;4976615;28;20683;-64
2022/01/09 01:00:06;;;;;;;0.30;0.30;;;5.30;99.90;;;5.48;100.00;98331.19;4966135;28;20577;-65
2022/01/09 01:02:33;;;;;;;0.30;0.30;;;5.40;99.90;;;5.46;100.00;98328.75;4956947;28;20224;-64
2022/01/09 01:05:01;;;;;;;2.47;0.30;;;5.40;99.90;;;5.51;100.00;98315.41;4973917;28;20196;-65
2022/01/09 01:07:28;;;;;;;0.30;0.30;;;5.40;99.90;;;5.56;100.00;98315.81;4957340;28;20230;-64
2022/01/09 01:09:57;;;;;;;0.30;0.30;;;5.50;99.90;;;5.61;100.00;98307.66;4976139;28;20310;-64
2022/01/09 01:14:58;;;;;;;0.30;0.30;;;5.50;99.90;;;5.63;100.00;98314.31;4971788;28;20216;-65
2022/01/09 01:17:25;;;;;;;0.30;0.30;;;5.60;99.90;;;5.62;100.00;98317.06;4964572;28;20228;-65
2022/01/09 01:19:54;;;;;;;0.40;0.40;;;5.50;99.90;;;5.66;100.00;98306.31;4985411;28;20200;-66
2022/01/09 01:22:28;;;;;;;0.30;0.30;;;5.60;99.90;;;5.71;100.00;98298.94;4974719;28;20295;-66
2022/01/09 01:24:56;;;;;;;0.30;0.30;;;5.60;99.90;;;5.72;100.00;98292.81;4954474;29;20295;-65
2022/01/09 01:27:24;;;;;;;0.30;0.30;;;5.60;99.90;;;5.75;100.00;98294.31;4955488;29;20240;-66
2022/01/09 01:29:50;;;;;;;0.30;0.30;;;5.70;99.90;;;5.76;100.00;98283.84;4954352;28;20208;-65
2022/01/09 01:32:17;;;;;;;0.63;0.63;;;5.70;99.90;;;5.81;100.00;98286.84;4954191;28;20211;-63
2022/01/09 01:34:44;;;;;;;0.30;0.30;;;5.70;99.90;;;5.83;100.00;98297.88;4952948;28;20235;-63
2022/01/09 01:37:12;;;;;;;0.20;0.20;;;5.70;99.90;;;5.80;100.00;98279.19;4952810;28;20595;-63
2022/01/09 01:39:39;;;;;;;0.30;0.30;;;5.70;99.90;;;5.79;100.00;98286.13;4936794;29;21662;-63
2022/01/09 01:42:06;;;;;;;0.30;0.30;;;5.70;99.90;;;5.83;100.00;98284.94;4953398;28;20209;-66
2022/01/09 01:44:45;;;;;;;0.28;0.28;;;5.70;99.90;;;5.88;100.00;98289.69;4952916;29;20220;-66
2022/01/09 01:47:19;;;;;;;0.40;0.40;;;5.70;99.90;;;5.89;100.00;98287.00;4953021;29;20255;-65
2022/01/09 01:49:47;;;;;;;0.22;0.22;;;5.80;99.90;;;5.90;100.00;98286.03;4952744;29;20213;-64
2022/01/09 01:52:17;;;;;;;0.40;0.40;;;5.80;99.90;;;5.93;100.00;98295.28;4954853;29;20588;-66
2022/01/09 01:54:44;;;;;;;0.40;0.40;;;5.80;99.90;;;5.98;100.00;98281.00;4936954;29;20238;-66
2022/01/09 01:57:13;;;;;;;0.52;0.50;;;5.80;99.90;;;5.98;100.00;98278.41;4951756;29;20237;-66
2022/01/09 01:59:39;;;;;;;0.30;0.30;;;5.80;99.90;;;5.97;100.00;98288.88;4952554;29;20197;-66
2022/01/09 02:02:06;;;;;;;0.38;0.38;;;5.80;99.90;;;5.90;100.00;98286.03;4952279;28;20204;-65
2022/01/09 02:04:33;;;;;;;4.68;0.50;;;5.80;99.90;;;5.91;100.00;98289.44;4961893;28;20311;-66
2022/01/09 02:07:03;;;;;;;0.50;0.50;;;5.80;99.90;;;5.88;100.00;98293.13;4952611;29;20209;-66
2022/01/09 02:09:30;;;;;;;0.30;0.30;;;5.80;99.90;;;5.88;100.00;98287.13;4935988;29;20585;-66
2022/01/09 02:11:57;;;;;;;0.95;0.40;;;5.80;99.90;;;5.88;100.00;98287.94;4952254;28;20215;-66
2022/01/09 02:14:24;;;;;;;0.30;0.30;;;5.80;99.90;;;5.93;100.00;98295.28;4916648;28;1073494;-66
2022/01/09 02:16:51;;;;;;;0.30;0.30;;;5.80;99.90;;;5.93;100.00;98290.94;4953384;29;21043;-66
2022/01/09 02:19:21;;;;;;;0.20;0.20;;;5.80;99.90;;;5.95;100.00;98288.22;4955098;29;20209;-65
2022/01/09 02:21:49;;;;;;;0.30;0.30;;;5.80;99.90;;;5.92;100.00;98294.47;4953532;29;20203;-66
2022/01/09 02:24:17;;;;;;;0.30;0.30;;;5.80;99.90;;;5.90;100.00;98300.75;4953471;28;20212;-65
2022/01/09 02:26:43;;;;;;;0.38;0.38;;;5.80;99.90;;;5.94;100.00;98297.72;4953532;29;20208;-66
2022/01/09 02:29:10;;;;;;;0.30;0.30;;;5.80;99.90;;;5.94;100.00;98292.56;4955470;29;20212;-65
2022/01/09 02:31:37;;;;;;;0.40;0.40;;;5.80;99.90;;;6.00;100.00;98299.78;4954694;29;20219;-66
2022/01/09 02:34:04;;;;;;;0.38;0.38;;;5.90;99.90;;;5.97;100.00;98301.81;4955370;29;20235;-66
2022/01/09 02:36:31;;;;;;;0.30;0.30;;;5.80;99.90;;;6.00;100.00;98304.16;4952585;29;20716;-65
2022/01/09 02:38:58;;;;;;;0.43;0.43;;;5.90;99.90;;;5.97;100.00;98315.59;4936758;29;20211;-65
2022/01/09 02:41:25;;;;;;;0.50;0.50;;;5.90;99.90;;;6.02;100.00;98315.19;4953023;28;20221;-66
2022/01/09 02:43:52;;;;;;;0.82;0.43;;;5.90;99.90;;;6.02;100.00;98310.00;4953496;28;20221;-66
2022/01/09 02:49:07;;;;;;;2.78;0.50;;;5.90;99.90;;;6.08;100.00;98330.16;4953651;28;20593;-66
2022/01/09 02:51:36;;;;;;;0.30;0.30;;;5.90;99.90;;;6.11;100.00;98335.06;4954354;29;20204;-66
2022/01/09 02:57:02;;;;;;;0.30;0.30;;;6.00;99.90;;;6.15;100.00;98355.34;4938008;28;20739;-66
2022/01/09 02:59:29;;;;;;;0.45;0.40;;;6.00;99.90;;;6.17;100.00;98355.22;4964166;28;20205;-66
2022/01/09 03:01:56;;;;;;;0.40;0.40;;;6.10;99.90;;;6.14;100.00;98366.66;4972505;28;20694;-66
2022/01/09 03:04:23;;;;;;;0.50;0.30;;;6.00;99.90;;;6.14;100.00;98371.84;4952702;28;20319;-63
2022/01/09 03:06:50;;;;;;;0.30;0.30;;;6.00;99.90;;;6.17;100.00;98376.75;4951861;29;20201;-63
2022/01/09 03:09:17;;;;;;;0.30;0.30;;;6.00;99.90;;;6.22;100.00;98384.09;4952580;29;20572;-66
2022/01/09 03:11:47;;;;;;;0.30;0.30;;;6.10;99.90;;;6.22;100.00;98384.09;4949896;28;20203;-66
2022/01/09 03:14:14;;;;;;;0.30;0.30;;;6.10;99.90;;;6.23;100.00;98386.56;4945339;28;20669;-66
2022/01/09 03:16:41;;;;;;;0.30;0.30;;;6.10;99.90;;;6.23;100.00;98381.38;4954121;29;20664;-65
2022/01/09 03:19:07;;;;;;;0.30;0.30;;;6.10;99.90;;;6.26;100.00;98390.66;4954363;29;20615;-65
2022/01/09 03:21:34;;;;;;;0.30;0.30;;;6.10;99.90;;;6.28;100.00;98393.94;4953020;29;20204;-66
2022/01/09 03:24:01;;;;;;;0.30;0.30;;;6.10;99.90;;;6.26;100.00;98406.97;4952865;29;20635;-66
2022/01/09 03:26:28;;;;;;;0.30;0.30;;;6.10;99.90;;;6.21;100.00;98409.19;4954316;29;20620;-66
2022/01/09 03:28:55;;;;;;;0.33;0.33;;;6.10;99.90;;;6.28;100.00;98412.84;4951681;29;20648;-65
2022/01/09 03:31:22;;;;;;;0.30;0.30;;;6.10;99.90;;;6.29;99.81;98421.44;4953266;29;20624;-66
2022/01/09 03:33:54;;;;;;;0.30;0.30;;;6.10;99.90;;;6.35;99.31;98427.81;4951859;28;20227;-65
2022/01/09 03:36:21;;;;;;;0.30;0.30;;;6.20;99.90;;;6.43;98.36;98420.22;4961324;28;20671;-65
2022/01/09 03:38:48;;;;;;;1.13;0.33;;;6.30;99.90;;;6.43;98.33;98435.75;4972545;28;20200;-66
2022/01/09 03:41:15;;;;;;;0.40;0.40;;;6.30;99.90;;;6.42;96.96;98440.13;4959380;28;20632;-66
2022/01/09 03:43:41;;;;;;;0.30;0.30;;;6.30;99.90;;;6.47;97.73;98450.06;4952209;28;20656;-66
2022/01/09 03:46:08;;;;;;;0.30;0.30;;;6.30;99.90;;;6.47;96.19;98444.88;4951739;28;20642;-66
2022/01/09 03:48:35;;;;;;;0.20;0.20;;;6.40;99.90;;;6.59;96.05;98454.97;4951363;28;20636;-66
2022/01/09 03:51:03;;;;;;;0.30;0.30;;;6.50;99.90;;;6.67;93.93;98462.03;4952180;28;20620;-63
2022/01/09 03:53:32;;;;;;;0.30;0.30;;;6.50;99.90;;;6.71;94.72;98463.38;4951407;28;21236;-63
2022/01/09 03:55:59;;;;;;;0.40;0.40;;;6.60;99.90;;;6.72;93.70;98465.03;4952937;28;20616;-63
2022/01/09 03:58:26;;;;;;;0.30;0.30;;;6.60;99.90;;;6.75;93.27;98462.19;4952674;29;20624;-63
2022/01/09 04:00:53;;;;;;;0.30;0.30;;;6.60;99.90;;;6.69;92.94;98473.06;4952817;29;20726;-63
2022/01/09 04:03:20;;;;;;;0.23;0.23;;;6.60;99.90;;;6.72;91.22;98498.72;4951709;29;20660;-63
2022/01/09 04:05:47;;;;;;;0.30;0.30;;;6.50;99.90;;;6.80;91.01;98504.03;4951882;28;20686;-63
2022/01/09 04:08:14;;;;;;;0.30;0.30;;;6.60;99.90;;;6.82;90.04;98507.31;4951634;29;20646;-66
2022/01/09 04:10:42;;;;;;;0.30;0.30;;;6.60;99.90;;;6.89;88.42;98511.81;4952413;29;20622;-66
2022/01/09 04:13:13;;;;;;;0.30;0.30;;;6.70;99.90;;;6.89;87.51;98527.38;4951570;29;20232;-66
2022/01/09 04:15:47;;;;;;;0.30;0.30;;;6.70;99.90;;;6.79;89.30;98538.69;4951266;29;20648;-65
2022/01/09 04:18:21;;;;;;;0.40;0.40;;;6.60;99.90;;;6.79;89.44;98539.50;4935194;28;21305;-65
2022/01/09 04:20:49;;;;;;;0.30;0.30;;;6.60;99.90;;;6.75;89.69;98540.72;4935399;29;20620;-63
2022/01/09 04:23:18;;;;;;;0.30;0.30;;;6.50;99.90;;;6.78;89.76;98556.00;4935194;29;20730;-66
2022/01/09 04:25:46;;;;;;;0.20;0.20;;;6.50;99.90;;;6.77;88.87;98567.31;4952486;29;20643;-66
2022/01/09 04:28:14;;;;;;;1.20;0.40;;;6.60;99.90;;;6.70;89.36;98581.78;4952260;29;20620;-66
2022/01/09 04:30:42;;;;;;;1.90;0.30;;;6.50;99.90;;;6.70;88.84;98579.19;4951584;29;20647;-66
2022/01/09 04:33:10;;;;;;;0.40;0.40;;;6.50;99.90;;;6.76;88.18;98591.63;4951288;28;21239;-66
2022/01/09 04:35:40;;;;;;;0.30;0.30;;;6.60;99.90;;;6.76;87.83;98601.97;4951366;28;20624;-66
2022/01/09 04:38:08;;;;;;;0.40;0.40;;;6.50;99.90;;;6.73;86.58;98617.78;4951851;29;20754;-66
2022/01/09 04:40:35;;;;;;;0.20;0.20;;;6.50;99.90;;;6.64;87.60;98615.19;4952318;29;20647;-66
2022/01/09 04:43:05;;;;;;;0.30;0.30;;;6.40;99.90;;;6.64;88.56;98628.16;4953326;29;20632;-66
2022/01/09 04:45:32;;;;;;;0.30;0.30;;;6.40;99.90;;;6.57;87.88;98637.41;4951993;29;20662;-65
2022/01/09 04:48:03;;;;;;;0.30;0.30;;;6.40;99.90;;;6.59;87.81;98648.44;4919309;29;21071;-65
2022/01/09 04:50:33;;;;;;;0.57;0.50;;;6.40;99.90;;;6.45;88.07;98660.03;4952185;29;21042;-65
2022/01/09 04:53:05;;;;;;;0.30;0.30;;;6.30;99.90;;;6.44;88.55;98665.31;4953210;29;20682;-65
2022/01/09 04:55:41;;;;;;;0.20;0.20;;;6.20;99.90;;;6.36;89.20;98665.16;4950702;29;20201;-66
2022/01/09 04:58:09;;;;;;;0.20;0.20;;;6.20;99.90;;;6.36;89.49;98670.34;4955003;28;20676;-65
2022/01/09 05:00:36;;;;;;;0.20;0.20;;;6.10;99.90;;;6.34;89.19;98677.41;4958572;28;21217;-65
2022/01/09 05:03:03;;;;;;;0.30;0.30;;;6.20;99.90;;;6.26;88.87;98678.09;4943905;29;20771;-65
2022/01/09 05:05:30;;;;;;;0.30;0.30;;;6.10;99.90;;;6.32;88.01;98689.69;4951168;29;20213;-66
2022/01/09 05:07:57;;;;;;;0.20;0.20;;;6.10;99.90;;;6.26;88.20;98693.63;4950483;29;20205;-64
2022/01/09 05:10:24;;;;;;;0.20;0.20;;;6.10;99.90;;;6.22;89.29;98699.97;4952424;29;20708;-65
2022/01/09 05:12:51;;;;;;;0.20;0.20;;;6.00;99.90;;;6.18;88.52;98707.19;4950910;29;20220;-65
2022/01/09 05:15:19;;;;;;;0.30;0.30;;;6.00;99.90;;;6.15;89.12;98707.44;4951796;29;20617;-65
2022/01/09 05:17:46;;;;;;;0.30;0.30;;;6.00;99.90;;;6.21;87.56;98717.31;4954337;28;21062;-65
2022/01/09 05:20:14;;;;;;;0.40;0.40;;;6.00;99.90;;;6.19;87.42;98721.81;4955704;29;20639;-65
2022/01/09 05:22:41;;;;;;;0.30;0.30;;;6.00;99.90;;;6.19;87.30;98721.81;4955292;29;20215;-66
2022/01/09 05:25:08;;;;;;;0.30;0.30;;;6.00;99.90;;;6.12;87.91;98743.97;4954500;29;20196;-65
2022/01/09 05:27:37;;;;;;;0.30;0.30;;;5.90;99.90;;;6.06;88.89;98741.91;4955119;29;21206;-65
2022/01/09 05:30:06;;;;;;;0.35;0.35;;;5.90;99.90;;;6.02;88.84;98742.28;4953468;28;20647;-65
2022/01/09 05:32:33;;;;;;;0.30;0.30;;;5.90;99.90;;;6.10;88.40;98751.03;4955140;28;20234;-65
2022/01/09 05:35:01;;;;;;;0.30;0.30;;;5.90;99.90;;;6.07;88.34;98756.47;4936916;29;20209;-64
2022/01/09 05:37:28;;;;;;;0.30;0.30;;;5.90;99.90;;;5.95;88.96;98756.66;4954324;29;20225;-65
2022/01/09 05:39:54;;;;;;;1.15;0.30;;;5.80;99.90;;;5.97;88.97;98758.19;4955024;29;20208;-65
2022/01/09 05:42:21;;;;;;;0.30;0.30;;;5.80;99.90;;;5.99;90.00;98769.22;4953543;28;20197;-65
2022/01/09 05:44:48;;;;;;;0.35;0.32;;;5.90;99.90;;;5.97;89.53;98783.25;4955314;28;20227;-65
2022/01/09 05:47:15;;;;;;;0.55;0.40;;;5.80;99.90;;;5.96;89.25;98772.06;4954766;29;20211;-65
2022/01/09 05:49:42;;;;;;;0.30;0.30;;;5.80;99.90;;;5.99;89.22;98782.16;4955509;29;20215;-65
2022/01/09 05:52:09;;;;;;;0.40;0.40;;;5.90;99.90;;;6.01;89.84;98785.44;4954826;29;20620;-65
2022/01/09 05:54:36;;;;;;;0.40;0.40;;;5.90;99.90;;;6.07;88.23;98795.31;4954379;28;20231;-65
2022/01/09 05:57:04;;;;;;;0.40;0.40;;;5.90;99.90;;;6.00;88.92;98808.88;4953780;28;20320;-65
2022/01/09 05:59:30;;;;;;;0.50;0.50;;;5.90;99.90;;;6.01;89.75;98813.94;4954049;28;20742;-65
2022/01/09 06:01:57;;;;;;;0.60;0.60;;;5.90;99.90;;;6.00;89.51;98824.41;4952477;29;21212;-65
2022/01/09 06:04:25;;;;;;;0.25;0.25;;;5.90;99.90;;;6.06;88.61;98826.50;4936913;28;20220;-65
2022/01/09 06:06:54;;;;;;;0.40;0.40;;;5.90;99.90;;;6.08;87.78;98828.03;4954326;29;20623;-65
2022/01/09 06:09:22;;;;;;;0.60;0.52;;;5.90;99.90;;;6.05;88.54;98845.56;4938986;29;20255;-65
2022/01/09 06:11:48;;;;;;;0.45;0.40;;;5.90;99.90;;;6.06;88.76;98844.63;4953888;29;20206;-65
2022/01/09 06:14:15;;;;;;;0.50;0.40;;;5.90;99.90;;;6.10;87.82;98843.41;4953640;29;20725;-65
2022/01/09 06:16:42;;;;;;;0.60;0.60;;;5.90;99.90;;;6.07;88.19;98849.66;4952825;29;20571;-65
2022/01/09 06:19:10;;;;;;;1.03;0.60;;;5.90;99.90;;;6.04;88.91;98862.06;4955092;29;20571;-65
2022/01/09 06:21:37;;;;;;;0.40;0.40;;;5.90;99.90;;;6.00;89.65;98861.47;4953473;29;20620;-65
2022/01/09 06:24:04;;;;;;;1.50;0.57;;;5.90;99.90;;;6.00;89.66;98856.31;4936248;29;20223;-65
2022/01/09 06:26:31;;;;;;;0.65;0.65;;;5.90;99.90;;;6.02;89.35;98882.06;4969352;28;20682;-65
2022/01/09 06:28:58;;;;;;;0.80;0.50;;;5.90;99.90;;;6.06;89.93;98892.06;4953244;28;20296;-65
2022/01/09 06:31:25;;;;;;;0.53;0.53;;;5.90;99.90;;;6.07;88.60;98895.44;4953688;28;20620;-65
2022/01/09 06:33:52;;;;;;;0.80;0.80;;;6.00;99.90;;;6.06;89.60;98901.56;4953711;28;21343;-65
2022/01/09 06:36:18;;;;;;;0.85;0.65;;;5.90;99.90;;;6.08;89.35;98905.69;4953724;28;20992;-65
2022/01/09 06:38:45;;;;;;;1.33;0.50;;;5.90;99.90;;;6.06;89.20;98922.28;4953045;29;20724;-65
2022/01/09 06:41:12;;;;;;;0.75;0.75;;;5.90;99.90;;;6.11;88.50;98918.38;4953842;29;20632;-65
2022/01/09 06:43:40;;;;;;;2.25;0.70;;;6.00;99.90;;;6.15;88.90;98919.75;4953769;29;20228;-65
2022/01/09 06:46:07;;;;;;;2.88;1.00;;;6.00;99.90;;;6.15;88.14;98932.72;4954530;29;20208;-65
2022/01/09 06:48:34;;;;;;;0.50;0.50;;;6.00;99.90;;;6.16;88.93;98944.72;4952416;28;20209;-65
2022/01/09 06:51:01;;;;;;;0.73;0.53;;;6.00;99.90;;;6.16;88.20;98949.06;4953251;28;20743;-65
2022/01/09 06:53:28;;;;;;;1.50;0.47;;;6.00;99.90;;;6.18;88.13;98953.19;4952851;28;21010;-65
2022/01/09 06:55:55;;;;;;;0.80;0.60;;;6.00;99.90;;;6.22;88.13;98964.13;4949190;28;20639;-64
2022/01/09 06:58:22;;;;;;;2.30;0.93;;;6.10;99.90;;;6.23;87.41;98963.19;4947266;28;20672;-66
2022/01/09 07:00:49;;;;;;;0.80;0.80;;;6.10;99.90;;;6.22;87.71;98974.47;4967364;28;20693;-65
2022/01/09 07:03:16;;;;;;;0.53;0.47;;;6.00;99.90;;;6.24;88.10;98978.59;4951340;29;20659;-65
2022/01/09 07:05:43;;;;;;;3.28;0.70;;;6.10;99.90;;;6.23;87.78;98984.72;4934599;29;20624;-65
2022/01/09 07:08:10;;;;;;;1.33;0.67;;;6.10;99.90;;;6.26;87.37;98981.88;4951326;29;20220;-65
2022/01/09 07:10:37;;;;;;;0.80;0.77;;;6.10;99.90;;;6.28;86.97;98988.72;4956084;28;20681;-65
2022/01/09 07:13:04;;;;;;;0.60;0.60;;;6.10;99.90;;;6.31;86.43;98994.47;4951509;28;20676;-65
2022/01/09 07:15:32;;;;;;;0.80;0.80;;;6.20;99.90;;;6.30;85.52;98994.59;4952773;28;20650;-64
2022/01/09 07:17:59;;;;;;;1.03;1.00;;;6.10;99.90;;;6.25;86.56;99005.31;4958486;28;20591;-65
2022/01/09 07:20:29;;;;;;;2.63;1.10;;;6.10;99.90;;;6.27;86.38;99013.78;4952804;29;20654;-65
2022/01/09 07:22:56;;;;;;;0.70;0.70;;;6.10;99.90;;;6.27;86.15;99016.38;4948244;29;20707;-66
2022/01/09 07:25:23;;;;;;;2.00;0.90;;;6.10;99.90;;;6.30;85.00;99030.84;4948658;28;20636;-65
2022/01/09 07:27:50;;;;;;;1.70;0.80;;;6.20;99.90;;;6.36;84.39;99038.13;4956752;28;20718;-65
2022/01/09 07:30:17;;;;;;;1.43;0.70;;;6.20;99.90;;;6.37;85.29;99050.94;4969356;28;20620;-65
2022/01/09 07:32:44;;;;;;;1.33;0.80;;;6.20;99.90;;;6.35;85.02;99062.38;4950310;28;20649;-65
2022/01/09 07:35:11;;;;;;;0.80;0.80;;;6.20;99.90;;;6.34;84.35;99068.50;4951910;28;20632;-65
2022/01/09 07:37:38;;;;;;;0.60;0.60;;;6.10;99.90;;;6.32;85.16;99081.59;4948870;29;21075;-66
2022/01/09 07:40:06;;;;;;;0.50;0.50;;;6.20;99.90;;;6.22;85.38;99080.66;4952504;28;20612;-64
2022/01/09 07:42:33;;;;;;;0.90;0.80;;;6.10;99.90;;;6.30;84.69;99085.25;4951311;29;20640;-65
2022/01/09 07:45:00;;;;;;;2.20;0.50;;;6.10;99.90;;;6.33;84.13;99100.53;4954738;28;20291;-65
2022/01/09 07:47:27;;;;;;;0.67;0.67;;;6.20;99.90;;;6.28;84.69;99098.31;4969520;28;20630;-65
2022/01/09 07:49:54;;;;;;;0.70;0.70;;;6.10;99.90;;;6.34;84.29;99110.78;4972643;28;20659;-65
2022/01/09 07:52:21;;;;;;;1.33;0.50;;;6.20;99.90;;;6.31;83.92;99115.38;4966233;28;20648;-65
2022/01/09 07:54:48;;;;;;;1.42;0.55;;;6.10;99.90;;;6.32;84.08;99124.78;4954920;29;20648;-65
2022/01/09 07:57:15;;;;;;;0.90;0.70;;;6.10;99.90;;;6.30;83.91;99118.91;4951840;29;20295;-65
2022/01/09 07:59:42;;;;;;;0.57;0.57;;;6.10;99.90;;;6.26;83.97;99132.09;4953808;29;20646;-65
2022/01/09 08:02:09;;;;;;;0.50;0.50;;;6.10;99.90;;;6.27;84.53;99132.94;4958927;28;20736;-65
2022/01/09 08:04:36;;;;;;;0.97;0.77;;;6.20;99.90;;;6.25;84.91;99138.22;4963181;28;20647;-65
2022/01/09 08:07:04;;;;;;;0.60;0.50;;;6.10;99.90;;;6.26;84.48;99139.88;4950687;29;21054;-65
2022/01/09 08:09:31;;;;;;;0.45;0.45;;;6.10;99.90;;;6.24;85.25;99144.34;4952937;29;21132;-65
2022/01/09 08:11:58;;;;;;;0.93;0.73;;;6.10;99.90;;;6.24;85.39;99151.28;4950842;29;20285;-65
2022/01/09 08:14:24;;;;;;;0.50;0.50;;;6.10;99.90;;;6.22;84.96;99145.41;4952242;29;20236;-65
2022/01/09 08:16:51;;;;;;;2.10;0.70;;;6.10;99.90;;;6.25;84.65;99156.34;4950909;29;20208;-65
2022/01/09 08:19:18;;;;;;;2.70;0.40;;;6.10;99.90;;;6.15;84.78;99155.41;4952502;29;21253;-65
2022/01/09 08:21:45;;;;;;;4.80;1.17;;;6.00;99.90;;;6.20;85.57;99148.13;4950372;29;20670;-65
2022/01/09 08:24:14;;;;;;;0.57;0.57;;;6.10;99.90;;;6.20;85.33;99163.66;4952714;29;20227;-65
2022/01/09 08:26:41;;;;;;;2.73;0.60;;;6.10;99.90;;;6.18;84.76;99170.72;4951179;29;20650;-65
2022/01/09 08:29:08;;;;;;;0.30;0.30;;;6.10;99.90;;;6.17;84.88;99179.44;4953114;29;20603;-65
2022/01/09 08:31:35;;;;;;;2.20;1.07;;;6.00;99.90;;;6.28;84.09;99170.00;4936194;28;21025;-65
2022/01/09 08:34:02;;;;;;;1.33;0.70;;;6.10;99.90;;;6.35;82.87;99184.94;4945110;28;20643;-65
2022/01/09 08:36:33;;;;;;;0.70;0.70;;;6.30;99.90;;;6.38;82.19;99176.13;4935573;29;21021;-65
2022/01/09 08:39:01;;;;;;;2.47;0.70;;;6.30;99.90;;;6.45;81.94;99185.06;4952819;29;20632;-64
2022/01/09 08:41:27;;;;;;;0.77;0.60;;;6.30;99.90;;;6.53;82.35;99183.53;4950788;29;20642;-65
2022/01/09 08:43:54;;;;;;;1.10;1.00;;;6.40;99.90;;;6.54;81.81;99190.34;4950163;29;21034;-65
2022/01/09 08:46:21;;;;;;;2.10;0.90;;;6.50;99.90;;;6.57;81.05;99192.72;4950312;29;20636;-65
2022/01/09 08:48:49;;;;;;;0.40;0.40;;;6.50;99.90;;;6.61;80.90;99199.31;4951914;29;20616;-65
2022/01/09 08:51:16;;;;;;;0.57;0.47;;;6.50;99.90;;;6.65;79.80;99197.28;4950946;28;21339;-64
2022/01/09 08:53:50;;;;;;;0.40;0.40;;;6.50;99.90;;;6.66;78.78;99199.78;4958062;28;20694;-66
2022/01/09 08:56:19;;;;;;;0.30;0.30;;;6.50;99.90;;;6.62;78.70;99200.13;4954240;29;20804;-65
2022/01/09 08:58:47;;;;;;;0.30;0.30;;;6.50;99.90;;;6.57;77.84;99197.06;4955958;28;20739;-65
2022/01/09 09:01:34;;;;;;;0.50;0.50;;;6.50;99.90;;;6.72;77.98;99201.06;4964568;28;20611;-65
2022/01/09 09:04:01;;;;;;;1.40;0.70;;;6.60;99.90;;;6.73;77.38;99205.31;4955908;28;20651;-65
2022/01/09 09:06:28;;;;;;;2.60;0.70;;;6.60;99.90;;;6.74;77.28;99202.59;4954077;29;21194;-64
2022/01/09 09:08:55;;;;;;;7.43;0.93;;;6.70;99.90;;;6.88;77.25;99209.25;4952711;29;20646;-65
2022/01/09 09:11:21;;;;;;;0.57;0.57;;;6.80;99.90;;;7.01;76.14;99212.53;4955406;29;20600;-65
2022/01/09 09:13:48;;;;;;;1.33;0.50;;;6.90;99.90;;;7.01;76.19;99217.72;4954457;28;20761;-66
2022/01/09 09:16:16;;;;;;;0.30;0.30;;;7.00;99.90;;;7.03;75.32;99215.81;4961501;28;20642;-63
2022/01/09 09:18:43;;;;;;;1.80;0.57;;;7.00;99.90;;;7.14;75.10;99223.56;4966031;28;20650;-63
2022/01/09 09:21:10;;;;;;;0.40;0.40;;;7.10;99.90;;;7.16;74.33;99246.78;4965738;28;21075;-64
2022/01/09 09:23:37;;;;;;;0.97;0.43;;;7.10;99.90;;;7.20;73.87;99245.63;4955179;29;21301;-65
2022/01/09 09:26:04;;;;;;;4.10;1.37;;;7.10;99.90;;;7.12;74.72;99247.97;4950609;29;20650;-66
2022/01/09 09:28:31;;;;;;;0.73;0.50;;;7.10;99.90;;;7.17;74.50;99246.69;4954704;29;20624;-65
2022/01/09 09:31:03;;;;;;;0.73;0.73;;;7.10;99.90;;;7.12;73.96;99248.81;4956537;28;20632;-64
2022/01/09 09:33:30;;;;;;;0.40;0.40;;;7.00;99.90;;;7.21;75.66;99255.03;4953289;28;20656;-64
2022/01/09 09:36:01;;;;;;;0.40;0.40;;;7.10;99.90;;;7.33;74.12;99251.44;4952493;28;20635;-64
2022/01/09 09:38:32;;;;;;;2.97;0.80;;;7.30;99.90;;;7.35;73.46;99262.53;4963582;28;20689;-64
2022/01/09 09:40:59;;;;;;;4.40;0.90;;;7.30;99.90;;;7.38;72.43;99268.31;4955985;28;20619;-65
2022/01/09 09:43:26;;;;;;;0.30;0.30;;;7.40;99.90;;;7.41;72.96;99270.66;4967013;28;20653;-64
2022/01/09 09:45:54;;;;;;;1.17;0.43;;;7.40;99.90;;;7.52;72.07;99275.81;4974466;28;20626;-64
2022/01/09 09:48:22;;;;;;;0.70;0.70;;;7.50;99.90;;;7.59;71.54;99271.78;4950684;28;20642;-66
2022/01/09 09:50:49;;;;;;;0.60;0.57;;;7.60;99.90;;;7.61;72.33;99277.66;4952730;28;20647;-63
2022/01/09 09:53:16;;;;;;;1.13;0.80;;;7.60;99.90;;;7.71;70.97;99283.75;4953590;28;20802;-66
2022/01/09 09:55:45;;;;;;;0.40;0.40;;;7.60;99.90;;;7.74;71.27;99288.72;4946392;29;20643;-66
2022/01/09 09:58:12;;;;;;;1.70;0.50;;;7.70;99.90;;;7.67;71.03;99297.94;4923636;28;20722;-66
2022/01/09 10:00:39;;;;;;;1.33;0.60;;;7.70;99.90;;;7.76;70.52;99289.41;4957182;28;20634;-66
2022/01/09 10:03:07;;;;;;;1.43;0.90;;;7.70;99.90;;;7.81;70.37;99300.22;4951243;28;20699;-63
2022/01/09 10:05:39;;;;;;;0.37;0.37;;;7.70;99.90;;;7.85;70.65;99303.41;4963606;28;20632;-65
2022/01/09 10:08:11;;;;;;;3.53;0.90;;;7.80;99.90;;;7.86;70.17;99309.44;4936546;29;21127;-65
2022/01/09 10:10:39;;;;;;;0.70;0.70;;;7.80;99.90;;;7.99;70.08;99307.44;4956205;28;20636;-65
2022/01/09 10:13:09;;;;;;;1.40;1.03;;;7.90;99.90;;;8.12;69.68;99300.31;4934669;29;20678;-67
2022/01/09 10:15:57;;;;;;;0.70;0.70;;;8.10;99.90;;;8.06;69.56;99306.00;4953554;29;21139;-66
2022/01/09 10:18:49;;;;;;;1.33;0.87;;;8.10;99.90;;;8.19;69.53;99299.69;4958744;28;21045;-65
2022/01/09 10:21:23;;;;;;;0.50;0.50;;;8.20;99.90;;;8.25;68.39;99303.53;4955232;28;20615;-65
2022/01/09 10:24:00;;;;;;;0.90;0.80;;;8.30;99.90;;;8.32;67.41;99302.94;4950693;29;21042;-64
2022/01/09 10:26:30;;;;;;;0.80;0.50;;;8.30;99.90;;;8.44;67.46;99307.09;4945455;28;20824;-64
2022/01/09 10:28:59;;;;;;;4.30;0.80;;;8.50;99.90;;;8.37;67.18;99311.16;4960879;28;20643;-64
2022/01/09 10:31:26;;;;;;;2.50;0.70;;;8.40;99.90;;;8.38;67.81;99314.59;4953061;29;20640;-65
2022/01/09 10:34:06;;;;;;;3.00;0.60;;;8.50;99.90;;;8.43;67.65;99317.66;4949421;28;20689;-64
2022/01/09 10:36:45;;;;;;;0.67;0.57;;;8.50;99.90;;;8.51;67.26;99305.66;4960464;28;20635;-65
2022/01/09 10:39:16;;;;;;;1.57;1.10;;;8.40;99.90;;;8.58;67.33;99318.97;4953123;29;20632;-65
2022/01/09 10:42:04;;;;;;;1.50;0.70;;;8.60;99.90;;;8.62;66.98;99317.75;4952992;29;21193;-65